Terminal Aerodrome Forecast
Issued by NWS

Home | Current Version | Previous Version | Text Only | Print | Product List | Glossary On
Versions: 1 2 3 4 5 6 7 8 9 10 11 12 13 14 15 16 17 18 19 20
000
FTUS43 KEAX 262326
TAFMKC
TAF
KMKC 262326Z 2700/2724 13011KT 2SM -TSRA SCT025 BKN035CB
     FM270200 31011KT 2SM -TSRA SCT025 BKN035CB
     FM270400 17008KT P6SM VCTS FEW025 BKN035CB
      TEMPO 2704/2708 3SM -TSRA BKN035CB
     FM270800 17005KT P6SM VCSH BKN035
     FM271200 18005KT P6SM SCT025
     FM271900 22006KT P6SM VCTS BKN030CB=

USA.gov is the U.S. government's official web portal to all federal, state and local government web resources and services.